sensor_id;sensor_type;location;lat;lon;timestamp;P1;durP1;ratioP1;P2;durP2;ratioP2
22606;SDS011;11470;20.968;105.834;2023-07-02T00:01:27;10.50;;;5.68;;
22606;SDS011;11470;20.968;105.834;2023-07-02T00:06:32;15.95;;;7.82;;
22606;SDS011;11470;20.968;105.834;2023-07-02T00:11:45;14.25;;;7.18;;
22606;SDS011;11470;20.968;105.834;2023-07-02T00:16:49;19.92;;;6.93;;
22606;SDS011;11470;20.968;105.834;2023-07-02T00:21:55;16.93;;;8.10;;
22606;SDS011;11470;20.968;105.834;2023-07-02T00:27:01;16.48;;;8.52;;
22606;SDS011;11470;20.968;105.834;2023-07-02T00:32:08;17.67;;;7.88;;
22606;SDS011;11470;20.968;105.834;2023-07-02T00:42:18;13.77;;;6.47;;
22606;SDS011;11470;20.968;105.834;2023-07-02T00:47:26;16.52;;;7.38;;
22606;SDS011;11470;20.968;105.834;2023-07-02T00:52:37;12.88;;;7.70;;
22606;SDS011;11470;20.968;105.834;2023-07-02T00:57:42;11.13;;;7.10;;
22606;SDS011;11470;20.968;105.834;2023-07-02T01:02:53;16.10;;;7.90;;
22606;SDS011;11470;20.968;105.834;2023-07-02T01:08:05;11.30;;;7.13;;
22606;SDS011;11470;20.968;105.834;2023-07-02T01:13:14;14.32;;;7.45;;
22606;SDS011;11470;20.968;105.834;2023-07-02T01:18:23;10.77;;;6.72;;
22606;SDS011;11470;20.968;105.834;2023-07-02T01:23:28;14.57;;;7.00;;
22606;SDS011;11470;20.968;105.834;2023-07-02T01:28:36;22.85;;;9.45;;
22606;SDS011;11470;20.968;105.834;2023-07-02T01:33:42;14.65;;;9.40;;
22606;SDS011;11470;20.968;105.834;2023-07-02T01:38:47;20.55;;;10.75;;
22606;SDS011;11470;20.968;105.834;2023-07-02T01:43:52;10.25;;;7.03;;
22606;SDS011;11470;20.968;105.834;2023-07-02T01:48:57;10.70;;;7.68;;
22606;SDS011;11470;20.968;105.834;2023-07-02T01:54:04;20.20;;;9.80;;
22606;SDS011;11470;20.968;105.834;2023-07-02T01:59:09;11.63;;;8.02;;
22606;SDS011;11470;20.968;105.834;2023-07-02T02:04:15;11.82;;;7.10;;
22606;SDS011;11470;20.968;105.834;2023-07-02T02:09:20;11.25;;;6.47;;
22606;SDS011;11470;20.968;105.834;2023-07-02T02:14:26;14.35;;;7.57;;
22606;SDS011;11470;20.968;105.834;2023-07-02T02:19:31;12.25;;;7.55;;
22606;SDS011;11470;20.968;105.834;2023-07-02T02:24:36;10.15;;;6.88;;
22606;SDS011;11470;20.968;105.834;2023-07-02T02:29:41;19.67;;;9.93;;
22606;SDS011;11470;20.968;105.834;2023-07-02T02:39:51;13.60;;;7.95;;
22606;SDS011;11470;20.968;105.834;2023-07-02T02:44:56;16.20;;;8.13;;
22606;SDS011;11470;20.968;105.834;2023-07-02T02:50:01;11.10;;;6.60;;
22606;SDS011;11470;20.968;105.834;2023-07-02T02:55:07;10.95;;;7.22;;
22606;SDS011;11470;20.968;105.834;2023-07-02T03:00:14;12.70;;;8.13;;
22606;SDS011;11470;20.968;105.834;2023-07-02T03:05:21;14.48;;;8.07;;
22606;SDS011;11470;20.968;105.834;2023-07-02T03:10:26;14.50;;;8.23;;
22606;SDS011;11470;20.968;105.834;2023-07-02T03:15:31;10.98;;;6.95;;
22606;SDS011;11470;20.968;105.834;2023-07-02T03:20:51;9.75;;;6.40;;
22606;SDS011;11470;20.968;105.834;2023-07-02T03:25:56;11.60;;;8.05;;
22606;SDS011;11470;20.968;105.834;2023-07-02T03:31:01;12.40;;;7.35;;
22606;SDS011;11470;20.968;105.834;2023-07-02T03:36:08;14.25;;;8.35;;
22606;SDS011;11470;20.968;105.834;2023-07-02T03:41:14;12.93;;;7.45;;
22606;SDS011;11470;20.968;105.834;2023-07-02T03:46:18;13.25;;;7.90;;
22606;SDS011;11470;20.968;105.834;2023-07-02T03:51:23;18.23;;;8.63;;
22606;SDS011;11470;20.968;105.834;2023-07-02T03:56:29;12.52;;;7.18;;
22606;SDS011;11470;20.968;105.834;2023-07-02T04:01:34;17.67;;;11.82;;
22606;SDS011;11470;20.968;105.834;2023-07-02T04:06:39;15.32;;;8.45;;
22606;SDS011;11470;20.968;105.834;2023-07-02T04:16:48;5.60;;;3.53;;
22606;SDS011;11470;20.968;105.834;2023-07-02T04:26:58;16.80;;;9.25;;
22606;SDS011;11470;20.968;105.834;2023-07-02T04:32:23;12.60;;;8.18;;
22606;SDS011;11470;20.968;105.834;2023-07-02T04:37:28;14.52;;;10.05;;
22606;SDS011;11470;20.968;105.834;2023-07-02T04:42:33;13.95;;;9.30;;
22606;SDS011;11470;20.968;105.834;2023-07-02T04:47:44;12.40;;;8.90;;
22606;SDS011;11470;20.968;105.834;2023-07-02T04:52:50;12.93;;;9.30;;
22606;SDS011;11470;20.968;105.834;2023-07-02T04:57:54;17.65;;;9.88;;
22606;SDS011;11470;20.968;105.834;2023-07-02T05:02:59;15.40;;;9.38;;
22606;SDS011;11470;20.968;105.834;2023-07-02T05:08:04;12.30;;;9.55;;
22606;SDS011;11470;20.968;105.834;2023-07-02T05:13:10;10.80;;;8.70;;
22606;SDS011;11470;20.968;105.834;2023-07-02T05:18:14;14.43;;;7.90;;
22606;SDS011;11470;20.968;105.834;2023-07-02T05:23:19;13.70;;;8.40;;
22606;SDS011;11470;20.968;105.834;2023-07-02T05:28:24;6.43;;;4.57;;
22606;SDS011;11470;20.968;105.834;2023-07-02T05:33:31;8.18;;;7.28;;
22606;SDS011;11470;20.968;105.834;2023-07-02T05:38:36;7.72;;;3.67;;
22606;SDS011;11470;20.968;105.834;2023-07-02T05:43:42;11.00;;;7.18;;
22606;SDS011;11470;20.968;105.834;2023-07-02T05:48:46;10.00;;;7.05;;
22606;SDS011;11470;20.968;105.834;2023-07-02T05:53:51;9.95;;;5.90;;
22606;SDS011;11470;20.968;105.834;2023-07-02T05:58:56;10.80;;;6.90;;
22606;SDS011;11470;20.968;105.834;2023-07-02T06:09:06;10.20;;;6.97;;
22606;SDS011;11470;20.968;105.834;2023-07-02T06:14:14;13.10;;;6.72;;
22606;SDS011;11470;20.968;105.834;2023-07-02T06:24:23;7.70;;;6.05;;
22606;SDS011;11470;20.968;105.834;2023-07-02T06:29:28;9.27;;;5.75;;
22606;SDS011;11470;20.968;105.834;2023-07-02T06:34:33;12.85;;;6.47;;
22606;SDS011;11470;20.968;105.834;2023-07-02T06:39:39;11.27;;;6.63;;
22606;SDS011;11470;20.968;105.834;2023-07-02T06:49:51;11.23;;;6.60;;
22606;SDS011;11470;20.968;105.834;2023-07-02T06:54:57;13.55;;;7.20;;
22606;SDS011;11470;20.968;105.834;2023-07-02T07:00:02;10.93;;;6.93;;
22606;SDS011;11470;20.968;105.834;2023-07-02T07:05:08;11.63;;;8.18;;
22606;SDS011;11470;20.968;105.834;2023-07-02T07:10:14;10.07;;;7.28;;
22606;SDS011;11470;20.968;105.834;2023-07-02T07:20:23;18.38;;;10.77;;
22606;SDS011;11470;20.968;105.834;2023-07-02T07:30:36;19.08;;;11.02;;
22606;SDS011;11470;20.968;105.834;2023-07-02T07:35:41;14.02;;;9.45;;
22606;SDS011;11470;20.968;105.834;2023-07-02T07:40:47;14.88;;;8.90;;
22606;SDS011;11470;20.968;105.834;2023-07-02T07:45:52;15.02;;;9.65;;
22606;SDS011;11470;20.968;105.834;2023-07-02T07:51:01;12.55;;;9.02;;
22606;SDS011;11470;20.968;105.834;2023-07-02T08:01:11;14.93;;;9.52;;
22606;SDS011;11470;20.968;105.834;2023-07-02T08:06:16;16.38;;;9.60;;
22606;SDS011;11470;20.968;105.834;2023-07-02T08:11:37;15.68;;;9.98;;
22606;SDS011;11470;20.968;105.834;2023-07-02T08:16:44;15.40;;;9.00;;
22606;SDS011;11470;20.968;105.834;2023-07-02T08:21:50;19.42;;;9.55;;
22606;SDS011;11470;20.968;105.834;2023-07-02T08:26:55;15.00;;;9.52;;
22606;SDS011;11470;20.968;105.834;2023-07-02T08:32:00;15.38;;;9.68;;
22606;SDS011;11470;20.968;105.834;2023-07-02T08:37:05;24.23;;;15.93;;
22606;SDS011;11470;20.968;105.834;2023-07-02T08:47:14;20.27;;;10.93;;
22606;SDS011;11470;20.968;105.834;2023-07-02T08:52:21;19.05;;;9.30;;
22606;SDS011;11470;20.968;105.834;2023-07-02T08:57:25;14.05;;;8.48;;
22606;SDS011;11470;20.968;105.834;2023-07-02T09:02:31;15.73;;;9.10;;
22606;SDS011;11470;20.968;105.834;2023-07-02T09:07:49;19.90;;;9.75;;
22606;SDS011;11470;20.968;105.834;2023-07-02T09:13:06;21.95;;;11.35;;
22606;SDS011;11470;20.968;105.834;2023-07-02T09:23:34;18.67;;;10.55;;
22606;SDS011;11470;20.968;105.834;2023-07-02T09:28:39;14.65;;;9.82;;
22606;SDS011;11470;20.968;105.834;2023-07-02T09:38:49;15.93;;;8.93;;
22606;SDS011;11470;20.968;105.834;2023-07-02T09:43:54;12.68;;;7.93;;
22606;SDS011;11470;20.968;105.834;2023-07-02T09:49:00;11.05;;;7.93;;
22606;SDS011;11470;20.968;105.834;2023-07-02T09:54:05;9.77;;;6.95;;
22606;SDS011;11470;20.968;105.834;2023-07-02T09:59:10;13.60;;;8.00;;
22606;SDS011;11470;20.968;105.834;2023-07-02T10:04:16;11.27;;;6.55;;
22606;SDS011;11470;20.968;105.834;2023-07-02T10:14:43;12.75;;;6.88;;
22606;SDS011;11470;20.968;105.834;2023-07-02T10:19:52;11.98;;;6.38;;
22606;SDS011;11470;20.968;105.834;2023-07-02T10:24:58;9.63;;;6.95;;
22606;SDS011;11470;20.968;105.834;2023-07-02T10:30:07;8.25;;;5.57;;
22606;SDS011;11470;20.968;105.834;2023-07-02T10:35:14;13.10;;;9.48;;
22606;SDS011;11470;20.968;105.834;2023-07-02T10:40:22;9.98;;;5.85;;
22606;SDS011;11470;20.968;105.834;2023-07-02T10:45:31;9.13;;;5.43;;
22606;SDS011;11470;20.968;105.834;2023-07-02T10:50:38;7.38;;;5.63;;
22606;SDS011;11470;20.968;105.834;2023-07-02T11:00:49;10.87;;;5.70;;
22606;SDS011;11470;20.968;105.834;2023-07-02T11:05:55;9.43;;;6.03;;
22606;SDS011;11470;20.968;105.834;2023-07-02T11:11:06;12.75;;;6.65;;
22606;SDS011;11470;20.968;105.834;2023-07-02T11:16:23;11.32;;;6.05;;
22606;SDS011;11470;20.968;105.834;2023-07-02T11:21:33;10.70;;;6.03;;
22606;SDS011;11470;20.968;105.834;2023-07-02T11:26:39;10.07;;;5.20;;
22606;SDS011;11470;20.968;105.834;2023-07-02T11:31:46;8.82;;;4.85;;
22606;SDS011;11470;20.968;105.834;2023-07-02T11:36:51;11.60;;;6.65;;
22606;SDS011;11470;20.968;105.834;2023-07-02T11:41:58;9.82;;;5.20;;
22606;SDS011;11470;20.968;105.834;2023-07-02T11:47:03;14.80;;;7.25;;
22606;SDS011;11470;20.968;105.834;2023-07-02T11:52:11;8.55;;;4.97;;
22606;SDS011;11470;20.968;105.834;2023-07-02T11:57:18;10.73;;;4.47;;
22606;SDS011;11470;20.968;105.834;2023-07-02T12:02:26;11.43;;;6.15;;
22606;SDS011;11470;20.968;105.834;2023-07-02T12:07:30;11.52;;;5.70;;
22606;SDS011;11470;20.968;105.834;2023-07-02T12:12:36;9.68;;;5.93;;
22606;SDS011;11470;20.968;105.834;2023-07-02T12:17:43;11.80;;;6.43;;
22606;SDS011;11470;20.968;105.834;2023-07-02T12:22:49;11.77;;;5.07;;
22606;SDS011;11470;20.968;105.834;2023-07-02T12:32:59;11.38;;;5.40;;
22606;SDS011;11470;20.968;105.834;2023-07-02T12:38:04;13.15;;;6.30;;
22606;SDS011;11470;20.968;105.834;2023-07-02T12:43:12;18.20;;;6.28;;
22606;SDS011;11470;20.968;105.834;2023-07-02T12:48:17;12.07;;;6.10;;
22606;SDS011;11470;20.968;105.834;2023-07-02T12:53:22;12.60;;;5.10;;
22606;SDS011;11470;20.968;105.834;2023-07-02T12:58:31;14.32;;;5.72;;
22606;SDS011;11470;20.968;105.834;2023-07-02T13:03:37;10.77;;;4.70;;
22606;SDS011;11470;20.968;105.834;2023-07-02T13:08:41;9.73;;;4.85;;
22606;SDS011;11470;20.968;105.834;2023-07-02T13:13:46;6.22;;;4.20;;
22606;SDS011;11470;20.968;105.834;2023-07-02T13:18:51;9.77;;;4.53;;
22606;SDS011;11470;20.968;105.834;2023-07-02T13:23:59;7.68;;;4.13;;
22606;SDS011;11470;20.968;105.834;2023-07-02T13:29:04;7.22;;;3.53;;
22606;SDS011;11470;20.968;105.834;2023-07-02T13:34:09;7.68;;;4.15;;
22606;SDS011;11470;20.968;105.834;2023-07-02T13:39:14;11.63;;;4.50;;
22606;SDS011;11470;20.968;105.834;2023-07-02T13:44:19;9.00;;;4.47;;
22606;SDS011;11470;20.968;105.834;2023-07-02T13:49:24;8.68;;;4.22;;
22606;SDS011;11470;20.968;105.834;2023-07-02T13:54:29;7.40;;;3.87;;
22606;SDS011;11470;20.968;105.834;2023-07-02T13:59:36;9.27;;;4.78;;
22606;SDS011;11470;20.968;105.834;2023-07-02T14:09:54;7.63;;;4.68;;
22606;SDS011;11470;20.968;105.834;2023-07-02T14:14:59;13.55;;;5.72;;
22606;SDS011;11470;20.968;105.834;2023-07-02T14:20:08;6.60;;;4.10;;
22606;SDS011;11470;20.968;105.834;2023-07-02T14:25:14;10.35;;;5.03;;
22606;SDS011;11470;20.968;105.834;2023-07-02T14:30:37;13.80;;;5.53;;
22606;SDS011;11470;20.968;105.834;2023-07-02T14:35:43;10.68;;;5.85;;
22606;SDS011;11470;20.968;105.834;2023-07-02T14:40:48;13.23;;;6.18;;
22606;SDS011;11470;20.968;105.834;2023-07-02T14:45:55;7.10;;;4.80;;
22606;SDS011;11470;20.968;105.834;2023-07-02T14:51:02;13.20;;;5.85;;
22606;SDS011;11470;20.968;105.834;2023-07-02T14:56:08;8.50;;;5.07;;
22606;SDS011;11470;20.968;105.834;2023-07-02T15:01:13;11.75;;;5.50;;
22606;SDS011;11470;20.968;105.834;2023-07-02T15:06:18;9.02;;;4.85;;
22606;SDS011;11470;20.968;105.834;2023-07-02T15:11:23;9.82;;;4.78;;
22606;SDS011;11470;20.968;105.834;2023-07-02T15:16:28;9.98;;;3.80;;
22606;SDS011;11470;20.968;105.834;2023-07-02T15:21:33;7.40;;;4.20;;
22606;SDS011;11470;20.968;105.834;2023-07-02T15:31:43;8.88;;;4.70;;
22606;SDS011;11470;20.968;105.834;2023-07-02T15:36:49;9.38;;;5.00;;
22606;SDS011;11470;20.968;105.834;2023-07-02T15:41:58;8.18;;;4.63;;
22606;SDS011;11470;20.968;105.834;2023-07-02T15:47:03;8.00;;;4.32;;
22606;SDS011;11470;20.968;105.834;2023-07-02T15:52:09;9.68;;;5.03;;
22606;SDS011;11470;20.968;105.834;2023-07-02T16:02:19;10.82;;;4.72;;
22606;SDS011;11470;20.968;105.834;2023-07-02T16:07:29;9.18;;;4.15;;
22606;SDS011;11470;20.968;105.834;2023-07-02T16:12:40;8.30;;;4.38;;
22606;SDS011;11470;20.968;105.834;2023-07-02T16:17:47;13.25;;;5.20;;
22606;SDS011;11470;20.968;105.834;2023-07-02T16:22:52;5.38;;;3.90;;
22606;SDS011;11470;20.968;105.834;2023-07-02T16:27:59;10.43;;;4.32;;
22606;SDS011;11470;20.968;105.834;2023-07-02T16:33:05;10.50;;;4.72;;
22606;SDS011;11470;20.968;105.834;2023-07-02T16:38:10;7.10;;;4.05;;
22606;SDS011;11470;20.968;105.834;2023-07-02T16:43:15;6.00;;;4.18;;
22606;SDS011;11470;20.968;105.834;2023-07-02T16:53:26;10.90;;;4.15;;
22606;SDS011;11470;20.968;105.834;2023-07-02T16:58:32;10.15;;;3.88;;
22606;SDS011;11470;20.968;105.834;2023-07-02T17:03:37;16.55;;;7.10;;
22606;SDS011;11470;20.968;105.834;2023-07-02T17:13:50;18.08;;;6.93;;
22606;SDS011;11470;20.968;105.834;2023-07-02T17:18:54;17.00;;;4.90;;
22606;SDS011;11470;20.968;105.834;2023-07-02T17:23:59;13.48;;;4.65;;
22606;SDS011;11470;20.968;105.834;2023-07-02T17:29:04;11.20;;;4.00;;
22606;SDS011;11470;20.968;105.834;2023-07-02T17:34:11;8.20;;;4.20;;
22606;SDS011;11470;20.968;105.834;2023-07-02T17:39:18;9.57;;;3.63;;
22606;SDS011;11470;20.968;105.834;2023-07-02T17:49:29;10.23;;;4.57;;
22606;SDS011;11470;20.968;105.834;2023-07-02T17:54:45;13.57;;;4.75;;
22606;SDS011;11470;20.968;105.834;2023-07-02T17:59:54;12.57;;;4.82;;
22606;SDS011;11470;20.968;105.834;2023-07-02T18:04:59;8.57;;;4.03;;
22606;SDS011;11470;20.968;105.834;2023-07-02T18:10:05;14.30;;;3.75;;
22606;SDS011;11470;20.968;105.834;2023-07-02T18:15:10;14.75;;;4.15;;
22606;SDS011;11470;20.968;105.834;2023-07-02T18:20:15;10.20;;;3.92;;
22606;SDS011;11470;20.968;105.834;2023-07-02T18:25:20;11.48;;;3.15;;
22606;SDS011;11470;20.968;105.834;2023-07-02T18:30:25;9.50;;;3.20;;
22606;SDS011;11470;20.968;105.834;2023-07-02T18:35:32;15.00;;;3.70;;
22606;SDS011;11470;20.968;105.834;2023-07-02T18:40:38;12.32;;;4.28;;
22606;SDS011;11470;20.968;105.834;2023-07-02T18:45:49;10.18;;;3.60;;
22606;SDS011;11470;20.968;105.834;2023-07-02T18:50:55;13.15;;;3.97;;
22606;SDS011;11470;20.968;105.834;2023-07-02T18:56:02;13.50;;;4.65;;
22606;SDS011;11470;20.968;105.834;2023-07-02T19:01:10;8.35;;;3.92;;
22606;SDS011;11470;20.968;105.834;2023-07-02T19:06:16;14.73;;;4.78;;
22606;SDS011;11470;20.968;105.834;2023-07-02T19:11:22;12.20;;;4.20;;
22606;SDS011;11470;20.968;105.834;2023-07-02T19:16:27;8.50;;;3.97;;
22606;SDS011;11470;20.968;105.834;2023-07-02T19:21:32;8.13;;;4.05;;
22606;SDS011;11470;20.968;105.834;2023-07-02T19:26:37;13.55;;;5.70;;
22606;SDS011;11470;20.968;105.834;2023-07-02T19:31:43;9.40;;;4.70;;
22606;SDS011;11470;20.968;105.834;2023-07-02T19:36:50;8.68;;;4.03;;
22606;SDS011;11470;20.968;105.834;2023-07-02T19:41:55;8.23;;;3.97;;
22606;SDS011;11470;20.968;105.834;2023-07-02T19:47:00;8.32;;;3.72;;
22606;SDS011;11470;20.968;105.834;2023-07-02T19:52:05;9.00;;;3.73;;
22606;SDS011;11470;20.968;105.834;2023-07-02T19:57:16;12.60;;;3.97;;
22606;SDS011;11470;20.968;105.834;2023-07-02T20:02:21;9.95;;;3.60;;
22606;SDS011;11470;20.968;105.834;2023-07-02T20:07:26;13.65;;;3.78;;
22606;SDS011;11470;20.968;105.834;2023-07-02T20:17:36;10.95;;;3.85;;
22606;SDS011;11470;20.968;105.834;2023-07-02T20:22:41;7.87;;;3.90;;
22606;SDS011;11470;20.968;105.834;2023-07-02T20:27:50;9.82;;;3.42;;
22606;SDS011;11470;20.968;105.834;2023-07-02T20:32:56;6.20;;;3.75;;
22606;SDS011;11470;20.968;105.834;2023-07-02T20:38:00;12.93;;;4.35;;
22606;SDS011;11470;20.968;105.834;2023-07-02T20:43:05;13.50;;;3.97;;
22606;SDS011;11470;20.968;105.834;2023-07-02T20:48:16;16.17;;;4.18;;
22606;SDS011;11470;20.968;105.834;2023-07-02T20:53:21;8.10;;;3.80;;
22606;SDS011;11470;20.968;105.834;2023-07-02T20:58:26;10.30;;;4.17;;
22606;SDS011;11470;20.968;105.834;2023-07-02T21:03:31;7.13;;;4.20;;
22606;SDS011;11470;20.968;105.834;2023-07-02T21:08:36;12.85;;;4.95;;
22606;SDS011;11470;20.968;105.834;2023-07-02T21:13:42;12.38;;;5.03;;
22606;SDS011;11470;20.968;105.834;2023-07-02T21:18:47;9.65;;;5.28;;
22606;SDS011;11470;20.968;105.834;2023-07-02T21:23:52;11.37;;;4.97;;
22606;SDS011;11470;20.968;105.834;2023-07-02T21:28:57;8.90;;;4.65;;
22606;SDS011;11470;20.968;105.834;2023-07-02T21:34:02;13.18;;;5.78;;
22606;SDS011;11470;20.968;105.834;2023-07-02T21:39:07;9.57;;;4.97;;
22606;SDS011;11470;20.968;105.834;2023-07-02T21:44:13;8.20;;;5.05;;
22606;SDS011;11470;20.968;105.834;2023-07-02T21:49:18;6.30;;;4.30;;
22606;SDS011;11470;20.968;105.834;2023-07-02T21:54:23;8.70;;;4.20;;
22606;SDS011;11470;20.968;105.834;2023-07-02T21:59:29;12.80;;;5.32;;
22606;SDS011;11470;20.968;105.834;2023-07-02T22:04:34;12.07;;;5.07;;
22606;SDS011;11470;20.968;105.834;2023-07-02T22:09:39;13.63;;;5.45;;
22606;SDS011;11470;20.968;105.834;2023-07-02T22:19:49;14.45;;;5.60;;
22606;SDS011;11470;20.968;105.834;2023-07-02T22:24:54;12.82;;;5.95;;
22606;SDS011;11470;20.968;105.834;2023-07-02T22:35:07;16.17;;;6.30;;
22606;SDS011;11470;20.968;105.834;2023-07-02T22:40:14;10.20;;;5.07;;
22606;SDS011;11470;20.968;105.834;2023-07-02T22:45:23;14.63;;;5.70;;
22606;SDS011;11470;20.968;105.834;2023-07-02T22:50:29;8.30;;;4.50;;
22606;SDS011;11470;20.968;105.834;2023-07-02T22:55:33;11.73;;;5.75;;
22606;SDS011;11470;20.968;105.834;2023-07-02T23:00:38;8.18;;;4.20;;
22606;SDS011;11470;20.968;105.834;2023-07-02T23:05:44;12.60;;;5.45;;
22606;SDS011;11470;20.968;105.834;2023-07-02T23:10:49;13.27;;;5.68;;
22606;SDS011;11470;20.968;105.834;2023-07-02T23:15:54;13.00;;;6.35;;
22606;SDS011;11470;20.968;105.834;2023-07-02T23:21:00;11.52;;;6.05;;
22606;SDS011;11470;20.968;105.834;2023-07-02T23:26:05;13.43;;;7.22;;
22606;SDS011;11470;20.968;105.834;2023-07-02T23:31:11;9.13;;;5.53;;
22606;SDS011;11470;20.968;105.834;2023-07-02T23:36:15;15.02;;;7.32;;
22606;SDS011;11470;20.968;105.834;2023-07-02T23:41:24;14.98;;;7.90;;
22606;SDS011;11470;20.968;105.834;2023-07-02T23:46:29;13.50;;;6.40;;
22606;SDS011;11470;20.968;105.834;2023-07-02T23:51:34;18.33;;;9.80;;
22606;SDS011;11470;20.968;105.834;2023-07-02T23:56:39;16.75;;;10.70;;
